RJCN

Details ICAO RJCN (SHB)
Name NAKASHIBETSU
Region Japan
Timezone Asia/Tokyo (UTC+9.0)
Plans Departing 16
Arriving 22
Stats Elevation 234 ft / 71 m (AMSL)
Location 43.577427° 144.959791°
Runways 1
Magnetic Variation 8.929° W
Sunrise 2017-12-12 21:46:05 UTC / 2017-12-13 06:46:05 Local
Sunset 2017-12-13 06:45:06 UTC / 2017-12-13 15:45:06 Local
Advertisement - Login to hide

Runways

ID Width Length Bearing (true) Bearing (mag) Surface Threshold Offset Overrun Length
08 150 ft / 46 m 6,549 ft / 1,996 m 70.96° 79.89° Asphalt 0 ft / 0 m 200 ft / 61 m
26 150 ft / 46 m 6,549 ft / 1,996 m 250.97° 259.90° Asphalt 0 ft / 0 m 200 ft / 61 m

Approach Navaids

Runway Type Ident Frequency Range Bearing (true) Bearing (mag) Slope Elevation
08 Localiser INS 109.35 MHz 18 nm / 33 km 70.97° 79.90° - 234 ft / 71 m (AMSL)
08 Glidescope INS 109.35 MHz 10 nm / 19 km 70.97° 79.89° 3.00° 234 ft / 71 m (AMSL)
08 DME INS 109.35 MHz 18 nm / 33 km - - - 234 ft / 71 m (AMSL)

Map

Weather


0- 5 10 15 20 25 30 35+ Temperature / ° C

Clouds and Precipitation
Forecast for 2017-12-13 12:00 UTC. Updated 32 minutes ago

Ground ~20,000 ft ~40,000 ft Winds

METAR

RJCN 130900Z 27006KT 3200 -SHSN FEW005 SCT015 BKN025 M00/M02 Q0998

TAF

Not found
Warning: Do not use this data for real-world aviation or navigation. No guarantee of current accuracy is given.